Time;durP1;ratioP1;P1;durP2;ratioP2;P2;SDS_P1;SDS_P2;PMS_P1;PMS_P2;Temp;Humidity;BMP_temperature;BMP_pressure;BME280_temperature;BME280_humidity;BME280_pressure;Samples;Min_cycle;Max_cycle;Signal;HPM_P1;HPM_P2
2021/07/02 00:00:51;;;;;;;39.03;19.50;;;;;;;19.94;100.00;96970.78;4980835;28;20037;-80
2021/07/02 00:03:16;;;;;;;58.95;20.02;;;;;;;19.92;100.00;96964.69;4980306;28;20030;-80
2021/07/02 00:05:42;;;;;;;28.42;14.18;;;;;;;19.93;100.00;96968.25;4996660;28;20034;-80
2021/07/02 00:08:08;;;;;;;29.05;15.00;;;;;;;19.87;100.00;96963.50;4996768;28;20080;-80
2021/07/02 00:10:33;;;;;;;27.55;15.10;;;;;;;19.75;100.00;96960.22;4996683;28;20053;-80
2021/07/02 00:12:59;;;;;;;28.85;15.00;;;;;;;19.62;100.00;96959.88;4996980;28;20042;-80
2021/07/02 00:15:24;;;;;;;26.75;15.27;;;;;;;19.53;100.00;96965.44;4996461;28;20033;-79
2021/07/02 00:17:50;;;;;;;33.80;17.45;;;;;;;19.35;100.00;96962.78;4996524;28;20546;-80
2021/07/02 00:20:15;;;;;;;36.03;18.90;;;;;;;19.15;100.00;96967.63;4980218;28;20029;-80
2021/07/02 00:22:41;;;;;;;33.00;19.75;;;;;;;19.06;100.00;96956.91;4980568;28;20401;-80
2021/07/02 00:25:08;;;;;;;34.13;19.55;;;;;;;19.05;100.00;96964.16;4980261;28;20112;-80
2021/07/02 00:27:34;;;;;;;28.05;17.55;;;;;;;19.06;100.00;96960.47;4996472;28;20028;-80
2021/07/02 00:30:00;;;;;;;33.45;18.60;;;;;;;18.95;100.00;96955.28;4980485;28;20033;-80
2021/07/02 00:32:25;;;;;;;35.63;19.77;;;;;;;18.89;100.00;96962.22;4996308;28;20113;-80
2021/07/02 00:34:51;;;;;;;33.58;18.95;;;;;;;18.89;100.00;96958.66;4980095;28;20068;-80
2021/07/02 00:37:16;;;;;;;25.50;18.23;;;;;;;18.84;100.00;96958.28;4996410;28;20467;-80
2021/07/02 00:39:42;;;;;;;54.25;20.48;;;;;;;18.89;100.00;96972.22;5013788;28;20132;-80
2021/07/02 00:42:08;;;;;;;36.17;22.30;;;;;;;19.00;100.00;96979.22;4996467;28;20477;-80
2021/07/02 00:44:41;;;;;;;65.97;21.67;;;;;;;19.10;100.00;96985.38;5013452;28;20040;-79
2021/07/02 00:47:07;;;;;;;72.45;21.05;;;;;;;19.04;100.00;96983.31;5013479;28;20116;-80
2021/07/02 00:49:34;;;;;;;40.05;20.63;;;;;;;18.91;100.00;96991.88;4995855;28;20041;-81
2021/07/02 00:52:00;;;;;;;35.28;20.20;;;;;;;18.93;100.00;96990.72;4995606;28;20030;-80
2021/07/02 00:54:26;;;;;;;38.00;20.05;;;;;;;19.01;100.00;97002.63;5013209;28;20040;-80
2021/07/02 00:56:52;;;;;;;32.72;19.98;;;;;;;18.94;100.00;97003.25;4995885;28;20478;-82
2021/07/02 00:59:17;;;;;;;43.53;20.13;;;;;;;18.90;100.00;97022.69;4979399;28;20616;-79
2021/07/02 01:01:43;;;;;;;26.38;19.17;;;;;;;18.77;100.00;97012.28;4996184;28;20040;-79
2021/07/02 01:04:08;;;;;;;28.02;18.05;;;;;;;18.70;100.00;97005.78;4979671;28;20448;-80
2021/07/02 01:06:34;;;;;;;27.92;18.95;;;;;;;18.61;100.00;96997.78;4979689;28;20025;-80
2021/07/02 01:09:00;;;;;;;26.17;17.02;;;;;;;18.64;100.00;97006.41;4979910;28;20046;-80
2021/07/02 01:11:25;;;;;;;30.08;16.58;;;;;;;18.57;100.00;97002.66;4979599;28;20038;-80
2021/07/02 01:13:51;;;;;;;23.48;14.48;;;;;;;18.60;100.00;97002.34;4996405;28;20112;-79
2021/07/02 01:16:16;;;;;;;22.95;15.20;;;;;;;18.54;100.00;97000.28;4995577;28;20036;-77
2021/07/02 01:18:44;;;;;;;27.02;15.40;;;;;;;18.56;100.00;96997.38;4995430;28;20109;-80
2021/07/02 01:21:12;;;;;;;22.45;14.88;;;;;;;18.62;100.00;96996.75;4995974;28;20030;-80
2021/07/02 01:23:37;;;;;;;21.85;13.55;;;;;;;18.66;100.00;96992.72;4995308;28;20099;-82
2021/07/02 01:26:03;;;;;;;23.38;13.98;;;;;;;18.70;100.00;96986.81;4979147;28;20021;-82
2021/07/02 01:28:29;;;;;;;23.27;13.98;;;;;;;18.70;100.00;96970.56;4979083;28;20045;-82
2021/07/02 01:30:54;;;;;;;19.48;12.52;;;;;;;18.73;100.00;96978.41;4978849;28;20026;-82
2021/07/02 01:33:20;;;;;;;18.17;12.70;;;;;;;18.71;100.00;96974.97;4995457;28;20037;-80
2021/07/02 01:35:45;;;;;;;18.55;12.25;;;;;;;18.71;100.00;96963.28;4979077;28;20452;-82
2021/07/02 01:38:11;;;;;;;23.13;12.35;;;;;;;18.68;100.00;96964.47;4995136;28;20029;-82
2021/07/02 01:40:36;;;;;;;19.17;13.07;;;;;;;18.68;100.00;96964.47;4978886;28;20029;-82
2021/07/02 01:43:02;;;;;;;17.10;13.18;;;;;;;18.67;100.00;96968.16;4978994;28;20033;-82
2021/07/02 01:45:28;;;;;;;22.08;13.45;;;;;;;18.68;100.00;96959.03;4995039;28;20092;-83
2021/07/02 01:47:54;;;;;;;19.77;12.57;;;;;;;18.67;100.00;96951.91;4978884;28;20172;-82
2021/07/02 01:50:21;;;;;;;23.52;13.60;;;;;;;18.71;100.00;96958.72;4994692;28;20509;-81
2021/07/02 01:52:48;;;;;;;21.67;13.80;;;;;;;18.68;100.00;96952.78;4978604;28;20032;-81
2021/07/02 01:55:16;;;;;;;25.98;14.85;;;;;;;18.66;100.00;96961.06;4994826;28;20072;-82
2021/07/02 01:57:42;;;;;;;23.00;13.77;;;;;;;18.64;100.00;96963.06;4978631;28;20113;-82
2021/07/02 02:00:08;;;;;;;27.75;13.13;;;;;;;18.59;100.00;96954.59;4978851;28;20138;-82
2021/07/02 02:02:33;;;;;;;24.08;11.32;;;;;;;18.53;100.00;96947.09;4994775;28;20018;-80
2021/07/02 02:04:59;;;;;;;21.92;11.77;;;;;;;18.51;100.00;96946.41;4978617;28;20034;-81
2021/07/02 02:07:25;;;;;;;29.00;12.43;;;;;;;18.30;100.00;96941.28;4978158;28;20029;-80
2021/07/02 02:09:51;;;;;;;18.35;11.32;;;;;;;18.29;100.00;96953.16;4978520;28;20049;-81
2021/07/02 02:12:17;;;;;;;27.02;11.52;;;;;;;18.26;100.00;96952.63;4994682;28;20089;-80
2021/07/02 02:14:43;;;;;;;30.55;10.15;;;;;;;18.25;100.00;96954.47;4978091;28;20030;-81
2021/07/02 02:17:08;;;;;;;28.88;10.43;;;;;;;18.20;100.00;96956.81;4978580;28;20083;-82
2021/07/02 02:19:34;;;;;;;29.98;11.02;;;;;;;18.12;100.00;96943.19;4978378;28;20084;-81
2021/07/02 02:22:00;;;;;;;21.95;12.35;;;;;;;18.11;100.00;96954.19;4978162;28;20160;-82
2021/07/02 02:24:25;;;;;;;18.30;11.60;;;;;;;18.08;100.00;96954.50;5011772;28;20061;-81
2021/07/02 02:26:51;;;;;;;21.73;12.57;;;;;;;18.06;100.00;96951.06;4978159;28;20025;-82
2021/07/02 02:29:16;;;;;;;32.05;13.80;;;;;;;17.98;100.00;96946.44;4977996;28;20034;-82
2021/07/02 02:31:42;;;;;;;26.60;14.23;;;;;;;17.99;100.00;96948.16;4993969;28;20125;-82
2021/07/02 02:34:08;;;;;;;26.50;14.10;;;;;;;17.92;100.00;96938.94;4994407;28;20087;-81
2021/07/02 02:36:33;;;;;;;26.90;14.10;;;;;;;17.91;100.00;96939.09;4994051;28;20037;-80
2021/07/02 02:38:59;;;;;;;26.85;14.63;;;;;;;17.85;100.00;96935.16;4994445;28;20038;-80
2021/07/02 02:41:24;;;;;;;28.48;14.25;;;;;;;17.83;100.00;96934.47;5011821;28;20185;-80
2021/07/02 02:43:50;;;;;;;24.88;14.13;;;;;;;17.81;100.00;96940.03;4977783;28;20057;-79
2021/07/02 02:46:15;;;;;;;24.08;15.18;;;;;;;17.78;100.00;96945.75;4978017;28;20029;-80
2021/07/02 02:48:42;;;;;;;30.25;15.43;;;;;;;17.74;100.00;96941.66;4977809;28;20040;-80
2021/07/02 02:51:07;;;;;;;23.98;15.02;;;;;;;17.86;100.00;96945.00;4994007;28;20038;-81
2021/07/02 02:53:33;;;;;;;30.00;15.40;;;;;;;17.81;100.00;96948.13;4977753;28;20091;-80
2021/07/02 02:55:58;;;;;;;22.67;14.65;;;;;;;17.91;100.00;96947.22;4977817;28;20033;-81
2021/07/02 02:58:24;;;;;;;23.85;14.95;;;;;;;17.98;100.00;96948.31;4993949;28;20048;-81
2021/07/02 03:00:49;;;;;;;19.80;14.30;;;;;;;18.06;100.00;96954.63;4993591;28;20413;-81
2021/07/02 03:03:15;;;;;;;24.20;15.05;;;;;;;18.12;100.00;96948.59;4994075;28;20416;-81
2021/07/02 03:05:41;;;;;;;31.92;15.05;;;;;;;18.15;100.00;96944.75;4993826;28;20184;-80
2021/07/02 03:08:07;;;;;;;26.67;16.25;;;;;;;18.25;100.00;96945.50;4977404;28;20030;-81
2021/07/02 03:10:32;;;;;;;49.25;16.25;;;;;;;18.29;100.00;96938.75;4993368;28;20053;-80
2021/07/02 03:12:59;;;;;;;24.08;15.07;;;;;;;18.34;100.00;96933.72;4977345;28;20030;-81
2021/07/02 03:15:25;;;;;;;19.10;13.85;;;;;;;18.31;100.00;96936.72;4974095;28;20520;-81
2021/07/02 03:17:51;;;;;;;19.30;13.68;;;;;;;18.33;100.00;96935.56;4976762;28;20034;-81
2021/07/02 03:20:17;;;;;;;25.13;13.45;;;;;;;18.33;100.00;96932.84;4995528;28;20407;-81
2021/07/02 03:22:42;;;;;;;17.13;11.95;;;;;;;18.37;100.00;96944.22;4981341;28;20116;-81
2021/07/02 03:25:09;;;;;;;20.35;12.63;;;;;;;18.26;100.00;96933.66;4997412;28;20026;-81
2021/07/02 03:27:34;;;;;;;17.73;11.88;;;;;;;18.30;100.00;96933.16;4997126;28;20485;-80
2021/07/02 03:30:00;;;;;;;22.50;11.90;;;;;;;18.39;100.00;96936.81;4997267;28;20079;-81
2021/07/02 03:32:25;;;;;;;19.92;11.88;;;;;;;18.42;100.00;96948.19;4981473;28;20490;-82
2021/07/02 03:34:51;;;;;;;23.45;12.55;;;;;;;18.45;100.00;96965.97;4998660;28;20113;-81
2021/07/02 03:37:18;;;;;;;18.65;12.55;;;;;;;18.55;100.00;96958.59;4997830;28;20485;-83
2021/07/02 03:39:43;;;;;;;26.83;13.48;;;;;;;18.68;100.00;96974.44;4998413;28;20026;-82
2021/07/02 03:42:09;;;;;;;18.92;12.57;;;;;;;18.88;100.00;96982.22;4998641;28;20398;-83
2021/07/02 03:44:35;;;;;;;21.67;13.05;;;;;;;19.01;100.00;96986.34;4981144;28;20073;-81
2021/07/02 03:47:01;;;;;;;20.45;13.90;;;;;;;19.08;100.00;96987.41;4997313;28;20087;-81
2021/07/02 03:49:27;;;;;;;23.83;13.68;;;;;;;19.19;100.00;96992.56;4997676;28;20030;-80
2021/07/02 03:51:53;;;;;;;23.50;14.00;;;;;;;19.39;100.00;96991.28;4981103;28;20025;-83
2021/07/02 03:54:19;;;;;;;24.50;13.70;;;;;;;19.39;100.00;97013.88;4980760;28;20030;-82
2021/07/02 03:59:28;;;;;;;17.35;12.30;;;;;;;19.48;100.00;97010.19;4999514;28;20037;-82
2021/07/02 04:01:54;;;;;;;17.30;12.90;;;;;;;19.45;100.00;97012.34;4996439;28;20022;-84
2021/07/02 04:04:20;;;;;;;20.90;12.18;;;;;;;19.59;100.00;97014.47;4997342;28;20489;-90
2021/07/02 04:06:45;;;;;;;20.80;12.05;;;;;;;19.64;100.00;97003.09;4981237;28;20034;-86
2021/07/02 04:09:11;;;;;;;18.80;12.07;;;;;;;19.72;100.00;97012.13;4981265;28;20481;-83
2021/07/02 04:11:37;;;;;;;16.67;12.02;;;;;;;19.76;100.00;97012.66;4980123;28;20041;-88
2021/07/02 04:14:03;;;;;;;21.17;11.60;;;;;;;19.73;100.00;97016.53;4996267;28;20408;-89
2021/07/02 04:16:28;;;;;;;19.60;11.98;;;;;;;19.69;100.00;97019.75;4980133;28;20033;-82
2021/07/02 04:18:54;;;;;;;17.58;11.18;;;;;;;19.90;100.00;97018.28;4980541;28;20034;-86
2021/07/02 04:21:20;;;;;;;22.65;11.98;;;;;;;20.06;100.00;97022.91;4997484;28;20038;-86
2021/07/02 04:23:45;;;;;;;20.02;10.88;;;;;;;19.96;100.00;97028.47;4980494;28;20036;-84
2021/07/02 04:26:11;;;;;;;19.45;10.98;;;;;;;20.01;100.00;97031.56;5014740;28;20112;-86
2021/07/02 04:28:36;;;;;;;18.27;10.38;;;;;;;20.00;100.00;97019.00;4980540;28;20065;-86
2021/07/02 04:31:02;;;;;;;18.17;10.77;;;;;;;19.94;100.00;97029.66;4995615;28;20034;-83
2021/07/02 04:33:28;;;;;;;20.23;10.75;;;;;;;19.90;100.00;97034.56;4978249;28;20041;-87
2021/07/02 04:35:53;;;;;;;20.42;10.60;;;;;;;19.93;100.00;97044.28;4993624;28;20033;-87
2021/07/02 04:38:19;;;;;;;24.85;10.98;;;;;;;19.94;100.00;97045.94;5011277;28;20033;-87
2021/07/02 04:40:44;;;;;;;18.73;10.93;;;;;;;19.88;100.00;97047.47;4979691;28;20100;-89
2021/07/02 04:43:10;;;;;;;19.20;10.38;;;;;;;20.24;100.00;97047.22;4978964;28;20076;-89
2021/07/02 04:45:35;;;;;;;19.75;11.63;;;;;;;20.43;100.00;97052.34;4994781;28;20500;-86
2021/07/02 04:48:01;;;;;;;14.68;9.10;;;;;;;20.33;100.00;97047.09;5011067;28;20037;-87
2021/07/02 04:50:27;;;;;;;19.63;10.60;;;;;;;20.62;100.00;97060.19;4993350;28;20030;-87
2021/07/02 04:52:52;;;;;;;17.38;9.27;;;;;;;21.06;100.00;97056.13;4977470;28;20022;-87
2021/07/02 04:55:18;;;;;;;19.13;9.73;;;;;;;22.61;90.82;97065.38;4976724;28;20022;-87
2021/07/02 04:57:44;;;;;;;18.85;10.85;;;;;;;22.81;88.64;97065.75;4993355;28;20572;-88
2021/07/02 05:00:11;;;;;;;23.70;10.35;;;;;;;23.49;83.66;97073.84;4976716;28;20447;-86
2021/07/02 05:02:36;;;;;;;18.30;8.75;;;;;;;24.25;79.04;97084.38;4993666;28;20563;-87
2021/07/02 05:05:02;;;;;;;16.90;8.85;;;;;;;25.01;74.00;97086.50;4993498;28;20030;-87
2021/07/02 05:07:29;;;;;;;11.98;8.18;;;;;;;25.48;72.32;97085.00;4995492;28;20028;-87
2021/07/02 05:09:54;;;;;;;20.40;8.45;;;;;;;25.62;70.41;97101.41;4986493;28;20580;-86
2021/07/02 05:12:20;;;;;;;18.05;8.50;;;;;;;26.72;66.73;97095.84;4957719;28;20031;-88
2021/07/02 05:14:48;;;;;;;17.52;7.93;;;;;;;28.37;60.30;97090.13;4980449;28;20022;-88
2021/07/02 05:17:14;;;;;;;15.65;7.90;;;;;;;29.49;54.85;97112.41;4964316;28;20089;-90
2021/07/02 05:19:42;;;;;;;12.18;7.20;;;;;;;29.05;55.83;97112.47;4974874;28;20069;-88
2021/07/02 05:22:13;;;;;;;22.52;7.07;;;;;;;28.82;57.05;97112.19;4966821;28;20062;-89
2021/07/02 05:24:40;;;;;;;11.18;7.40;;;;;;;30.21;51.64;97127.44;4976925;28;20036;-89
2021/07/02 05:27:06;;;;;;;24.55;11.38;;;;;;;30.86;48.86;97130.50;4978758;28;20022;-89
2021/07/02 05:29:31;;;;;;;16.17;7.75;;;;;;;29.36;53.23;97122.66;4979199;28;20037;-88
2021/07/02 05:31:57;;;;;;;16.63;7.25;;;;;;;29.94;51.30;97128.78;4990914;28;20031;-88
2021/07/02 05:34:23;;;;;;;15.07;7.22;;;;;;;29.66;51.55;97120.94;4966732;28;20176;-87
2021/07/02 05:36:48;;;;;;;13.45;7.45;;;;;;;29.74;51.95;97128.09;4977741;28;20546;-91
2021/07/02 05:39:14;;;;;;;14.95;6.38;;;;;;;31.16;47.81;97134.16;4977497;28;20128;-88
2021/07/02 05:41:39;;;;;;;17.20;6.38;;;;;;;31.70;47.02;97138.66;4968351;28;20446;-88
2021/07/02 05:44:05;;;;;;;9.68;6.30;;;;;;;33.17;43.19;97140.13;4957391;28;20023;-89
2021/07/02 05:46:31;;;;;;;10.32;5.95;;;;;;;33.35;42.86;97147.41;4959637;28;20417;-89
2021/07/02 05:48:56;;;;;;;22.88;6.13;;;;;;;34.00;41.46;97153.28;4968538;28;20032;-88
2021/07/02 05:51:22;;;;;;;14.45;6.03;;;;;;;33.26;40.86;97149.72;4969746;28;20037;-86
2021/07/02 05:53:47;;;;;;;15.52;5.18;;;;;;;33.05;41.49;97161.47;4973521;28;20106;-88
2021/07/02 05:56:13;;;;;;;13.85;5.70;;;;;;;34.48;38.98;97153.53;4957464;28;20019;-89
2021/07/02 05:58:39;;;;;;;13.38;5.00;;;;;;;35.00;37.95;97161.47;4965242;28;20022;-89
2021/07/02 06:01:05;;;;;;;22.35;12.45;;;;;;;35.87;36.70;97163.03;4965995;28;20402;-89
2021/07/02 06:03:33;;;;;;;10.60;3.85;;;;;;;36.42;33.51;97145.94;4974618;28;20387;-87
2021/07/02 06:05:59;;;;;;;7.95;3.80;;;;;;;37.07;32.41;97153.00;4968103;28;20029;-88
2021/07/02 06:08:24;;;;;;;9.23;4.10;;;;;;;36.96;32.12;97156.84;4977799;28;20766;-88
2021/07/02 06:10:50;;;;;;;29.98;25.98;;;;;;;37.08;33.06;97162.22;4979704;28;20029;-88
2021/07/02 06:13:15;;;;;;;14.88;5.68;;;;;;;37.27;32.90;97155.06;4978563;28;20057;-89
2021/07/02 06:16:32;;;;;;;13.05;7.35;;;;;;;37.95;31.91;97157.47;4981877;28;20116;-89
2021/07/02 06:19:42;;;;;;;12.50;4.47;;;;;;;37.63;30.16;97126.13;4998022;28;20045;-88
2021/07/02 06:22:07;;;;;;;10.55;5.97;;;;;;;38.20;30.47;97148.25;4991787;28;20640;-89
2021/07/02 06:24:46;;;;;;;9.20;3.50;;;;;;;38.59;29.25;97145.69;4983275;28;20070;-88
2021/07/02 06:27:15;;;;;;;11.57;4.65;;;;;;;38.21;29.75;97109.97;4981654;28;20033;-88
2021/07/02 06:29:40;;;;;;;13.23;8.32;;;;;;;37.69;30.20;97141.78;4976989;28;20093;-81
2021/07/02 06:32:06;;;;;;;5.13;2.97;;;;;;;37.16;29.75;97136.63;4976206;28;20060;-81
2021/07/02 06:34:32;;;;;;;9.70;4.97;;;;;;;36.64;31.02;97140.22;4976312;28;20037;-81
2021/07/02 06:36:57;;;;;;;7.43;3.38;;;;;;;36.74;30.61;97145.03;4993059;28;20033;-82
2021/07/02 06:39:23;;;;;;;8.07;3.80;;;;;;;36.15;32.25;97158.28;4976975;28;20473;-83
2021/07/02 06:41:48;;;;;;;13.40;3.83;;;;;;;37.10;30.39;97154.44;4977199;28;20385;-82
2021/07/02 06:44:14;;;;;;;21.13;15.95;;;;;;;36.23;31.87;97155.00;4976532;28;20444;-83
2021/07/02 06:46:39;;;;;;;5.35;3.53;;;;;;;36.92;32.97;97167.72;4976715;28;20042;-83
2021/07/02 06:49:05;;;;;;;5.57;3.22;;;;;;;36.93;31.07;97152.66;4992899;28;20045;-83
2021/07/02 06:51:33;;;;;;;9.63;5.35;;;;;;;37.69;31.35;97164.13;4976056;28;20555;-81
2021/07/02 06:54:01;;;;;;;7.68;4.00;;;;;;;38.60;29.18;97154.94;4977690;28;20037;-81
2021/07/02 06:56:28;;;;;;;9.90;4.32;;;;;;;37.43;30.92;97156.78;4980079;28;20327;-83
2021/07/02 06:58:53;;;;;;;10.05;4.45;;;;;;;37.98;29.91;97145.75;4980274;28;20045;-82
2021/07/02 07:01:19;;;;;;;11.70;5.38;;;;;;;35.56;33.89;97147.13;4979661;28;20025;-82
2021/07/02 07:03:44;;;;;;;13.38;9.07;;;;;;;34.67;35.77;97163.25;4980420;28;20053;-82
2021/07/02 07:06:10;;;;;;;26.42;12.15;;;;;;;34.22;36.83;97155.09;4979560;28;20034;-82
2021/07/02 07:08:35;;;;;;;9.05;5.28;;;;;;;34.10;36.25;97148.78;4995546;28;20533;-82
2021/07/02 07:11:01;;;;;;;7.75;4.72;;;;;;;33.73;37.83;97161.44;4979627;28;20072;-82
2021/07/02 07:13:27;;;;;;;8.20;3.75;;;;;;;33.26;36.99;97152.50;4996076;28;20164;-82
2021/07/02 07:15:52;;;;;;;7.97;4.88;;;;;;;33.33;38.05;97141.25;4979731;28;20650;-82
2021/07/02 07:18:18;;;;;;;10.35;6.40;;;;;;;33.12;40.34;97145.56;4979445;28;20026;-82
2021/07/02 07:20:44;;;;;;;9.48;5.80;;;;;;;32.44;41.00;97143.53;4979265;28;20085;-82
2021/07/02 07:23:09;;;;;;;21.23;8.32;;;;;;;33.18;39.67;97131.56;4979716;28;20057;-82
2021/07/02 07:25:35;;;;;;;12.23;8.55;;;;;;;32.53;40.32;97130.97;4979155;28;20412;-81
2021/07/02 07:28:00;;;;;;;20.42;11.77;;;;;;;31.67;42.17;97128.91;4979795;28;20033;-80
2021/07/02 07:30:27;;;;;;;6.68;3.85;;;;;;;31.45;42.76;97122.22;4979120;28;20456;-81
2021/07/02 07:32:53;;;;;;;12.63;4.22;;;;;;;31.38;44.31;97134.50;4978981;28;20138;-80
2021/07/02 07:35:23;;;;;;;13.30;5.78;;;;;;;31.69;43.57;97137.81;4978690;28;20038;-80
2021/07/02 07:37:52;;;;;;;7.07;4.82;;;;;;;31.85;42.14;97135.41;4979430;28;20037;-80
2021/07/02 07:40:18;;;;;;;12.32;4.90;;;;;;;31.39;45.26;97139.75;4995302;28;20025;-80
2021/07/02 07:42:43;;;;;;;6.45;3.65;;;;;;;30.83;44.93;97147.53;4978768;28;20029;-80
2021/07/02 07:45:09;;;;;;;12.38;4.45;;;;;;;31.13;44.70;97143.75;4978333;28;20036;-81
2021/07/02 07:47:35;;;;;;;8.07;3.78;;;;;;;31.05;42.95;97123.91;4978996;28;20821;-81
2021/07/02 07:50:07;;;;;;;5.00;3.40;;;;;;;31.21;44.55;97141.75;4978675;28;20037;-80
2021/07/02 07:55:16;;;;;;;8.80;3.88;;;;;;;34.79;36.23;97146.47;4997712;28;20157;-81
2021/07/02 07:57:42;;;;;;;7.47;3.20;;;;;;;35.08;36.27;97141.53;4979158;28;20033;-83
2021/07/02 08:00:08;;;;;;;6.90;3.80;;;;;;;36.07;35.21;97142.06;4978188;28;20033;-82
2021/07/02 08:02:36;;;;;;;11.73;3.97;;;;;;;37.06;32.25;97136.56;4978453;28;20018;-82
2021/07/02 08:05:03;;;;;;;5.63;3.40;;;;;;;37.52;31.50;97140.34;4993761;28;20478;-82
2021/07/02 08:07:38;;;;;;;12.80;4.00;;;;;;;38.02;31.52;97136.81;4977742;28;20037;-82
2021/07/02 08:10:18;;;;;;;11.68;3.90;;;;;;;38.98;30.35;97143.91;4978530;28;20054;-82
2021/07/02 08:12:44;;;;;;;4.05;2.63;;;;;;;36.64;31.08;97134.66;4977995;28;20033;-82
2021/07/02 08:15:11;;;;;;;4.82;3.20;;;;;;;36.38;31.98;97125.28;4977526;28;20076;-82
2021/07/02 08:17:37;;;;;;;8.40;3.35;;;;;;;37.47;31.65;97133.63;4978005;28;20037;-81
2021/07/02 08:20:04;;;;;;;6.18;4.03;;;;;;;38.87;28.78;97131.09;4978017;28;20029;-82
2021/07/02 08:22:30;;;;;;;7.57;5.05;;;;;;;39.30;27.47;97129.53;4978023;28;20033;-82
2021/07/02 08:24:55;;;;;;;7.15;4.05;;;;;;;38.37;28.77;97125.59;4977825;28;20033;-83
2021/07/02 08:27:23;;;;;;;8.48;3.55;;;;;;;39.01;27.72;97136.91;4977838;28;20033;-81
2021/07/02 08:29:49;;;;;;;10.88;3.53;;;;;;;39.75;28.47;97127.59;4978534;28;20041;-81
2021/07/02 08:32:15;;;;;;;6.38;3.10;;;;;;;39.27;28.26;97127.31;4977519;28;20100;-81
2021/07/02 08:34:40;;;;;;;5.75;3.03;;;;;;;39.83;27.10;97118.56;4994678;28;20068;-83
2021/07/02 08:37:06;;;;;;;5.25;2.70;;;;;;;39.83;25.25;97115.75;4978590;28;20109;-81
2021/07/02 08:39:31;;;;;;;4.13;2.90;;;;;;;39.36;27.12;97119.13;4979824;28;20030;-81
2021/07/02 08:41:57;;;;;;;2.78;2.47;;;;;;;39.28;27.01;97131.78;4995823;28;20397;-80
2021/07/02 08:44:22;;;;;;;6.18;2.58;;;;;;;39.55;25.43;97117.34;4979392;28;20464;-81
2021/07/02 08:46:49;;;;;;;2.88;2.58;;;;;;;40.05;26.64;97131.00;4979678;28;20390;-80
2021/07/02 08:49:16;;;;;;;11.52;6.93;;;;;;;41.32;26.31;97129.66;4979293;28;20029;-80
2021/07/02 08:51:43;;;;;;;10.05;3.67;;;;;;;41.81;24.84;97113.22;4979249;28;20512;-80
2021/07/02 08:54:14;;;;;;;9.65;2.85;;;;;;;41.17;24.96;97118.63;4979172;28;20057;-81
2021/07/02 08:56:56;;;;;;;10.05;2.72;;;;;;;41.28;25.64;97120.19;4980158;28;20405;-81
2021/07/02 08:59:26;;;;;;;7.57;2.47;;;;;;;42.45;22.64;97114.44;4997102;28;20030;-81
2021/07/02 09:01:53;;;;;;;5.88;2.50;;;;;;;42.45;23.98;97128.50;4979526;28;20485;-81
2021/07/02 09:04:24;;;;;;;3.67;2.50;;;;;;;40.01;24.60;97104.69;4995673;28;20029;-81
2021/07/02 09:07:01;;;;;;;8.02;3.22;;;;;;;39.57;26.40;97123.47;4979568;28;20545;-81
2021/07/02 09:09:55;;;;;;;9.20;2.55;;;;;;;38.43;26.84;97118.88;4991516;28;20054;-82
2021/07/02 09:12:25;;;;;;;5.53;3.83;;;;;;;37.72;28.84;97113.28;4975696;28;20038;-81
2021/07/02 09:15:01;;;;;;;8.23;2.63;;;;;;;36.52;32.55;97125.66;4975721;28;20041;-81
2021/07/02 09:17:27;;;;;;;3.33;2.80;;;;;;;35.68;31.67;97100.50;4975905;28;20057;-82
2021/07/02 09:20:27;;;;;;;6.97;2.95;;;;;;;36.09;32.38;97109.19;4976019;28;20034;-81
2021/07/02 09:22:58;;;;;;;6.85;3.00;;;;;;;38.13;30.55;97124.50;4932228;28;20038;-82
2021/07/02 09:25:31;;;;;;;8.15;3.70;;;;;;;39.45;28.43;97114.59;4975500;28;20168;-81
2021/07/02 09:28:03;;;;;;;6.18;3.58;;;;;;;40.10;26.19;97109.69;4975959;28;20545;-81
2021/07/02 09:30:30;;;;;;;5.03;3.15;;;;;;;39.50;28.00;97101.38;4991661;28;20398;-80
2021/07/02 09:33:01;;;;;;;5.55;4.65;;;;;;;40.55;27.96;97095.22;4975454;28;20502;-80
2021/07/02 09:35:44;;;;;;;8.93;4.03;;;;;;;40.53;26.80;97097.50;4975244;28;20109;-80
2021/07/02 09:38:10;;;;;;;7.88;3.40;;;;;;;40.87;26.36;97089.78;4976346;28;20513;-81
2021/07/02 09:40:37;;;;;;;7.32;2.90;;;;;;;40.40;27.65;97092.53;4975562;28;20038;-81
2021/07/02 09:43:09;;;;;;;6.20;3.30;;;;;;;40.64;26.31;97099.03;4975748;28;20038;-82
2021/07/02 09:45:52;;;;;;;4.00;3.28;;;;;;;41.25;24.79;97087.06;4984358;28;20030;-82
2021/07/02 09:48:26;;;;;;;7.85;6.00;;;;;;;40.80;26.16;97085.66;4975360;28;20034;-88
2021/07/02 09:50:53;;;;;;;14.80;4.20;;;;;;;41.55;25.69;97092.28;4992445;28;20026;-89
2021/07/02 09:53:25;;;;;;;12.65;3.90;;;;;;;42.38;24.65;97074.59;4976044;28;20125;-88
2021/07/02 09:55:53;;;;;;;15.75;4.13;;;;;;;41.36;25.06;97085.81;4976418;28;20544;-88
2021/07/02 09:58:26;;;;;;;7.10;2.95;;;;;;;41.42;24.40;97088.25;4976032;28;20053;-90
2021/07/02 10:00:55;;;;;;;7.55;2.85;;;;;;;42.23;23.35;97103.84;4976016;28;20057;-89
2021/07/02 10:03:26;;;;;;;6.50;2.72;;;;;;;41.29;24.26;97085.31;4976597;28;20022;-89
2021/07/02 10:05:56;;;;;;;4.25;2.88;;;;;;;41.74;24.88;97095.91;4976944;28;20516;-87
2021/07/02 10:08:25;;;;;;;4.55;3.03;;;;;;;41.71;25.38;97081.63;4992957;28;20481;-90
2021/07/02 10:10:51;;;;;;;3.72;2.50;;;;;;;42.08;24.84;97096.50;4979311;28;20104;-90
2021/07/02 10:13:19;;;;;;;6.95;2.67;;;;;;;40.82;25.37;97087.06;4979617;28;20030;-89
2021/07/02 10:15:45;;;;;;;7.43;3.15;;;;;;;39.53;27.39;97066.38;4979171;28;20084;-89
2021/07/02 10:18:13;;;;;;;6.80;3.40;;;;;;;38.99;26.90;97083.19;4978647;28;20025;-88
2021/07/02 10:20:40;;;;;;;8.52;3.10;;;;;;;38.10;28.20;97074.75;4978224;28;20493;-88
2021/07/02 10:23:06;;;;;;;14.73;5.15;;;;;;;36.88;29.81;97085.72;4978933;28;20064;-89
2021/07/02 10:25:32;;;;;;;4.55;3.20;;;;;;;35.79;31.48;97088.34;4978564;28;20033;-91
2021/07/02 10:27:58;;;;;;;6.43;2.90;;;;;;;34.70;32.45;97098.00;4978909;28;20036;-90
2021/07/02 10:30:24;;;;;;;6.68;3.08;;;;;;;34.11;35.40;97099.63;4978883;28;20029;-90
2021/07/02 10:32:53;;;;;;;8.25;3.05;;;;;;;33.29;35.90;97099.28;4994795;28;20022;-90
2021/07/02 10:35:19;;;;;;;8.38;3.25;;;;;;;32.60;37.66;97086.56;4979101;28;20464;-90
2021/07/02 10:37:48;;;;;;;14.85;2.78;;;;;;;33.25;36.07;97082.31;4978683;28;20026;-90
2021/07/02 10:40:33;;;;;;;4.90;2.70;;;;;;;33.57;35.23;97079.81;4979456;28;20065;-89
2021/07/02 10:43:25;;;;;;;4.78;3.03;;;;;;;33.22;35.76;97070.91;4979295;28;20104;-90
2021/07/02 10:46:09;;;;;;;5.63;2.63;;;;;;;33.18;36.22;97078.88;4979517;28;20562;-90
2021/07/02 10:48:49;;;;;;;10.18;2.60;;;;;;;32.31;37.03;97080.06;4995227;28;20112;-90
2021/07/02 10:51:35;;;;;;;5.50;2.90;;;;;;;31.79;38.34;97079.13;4995562;28;20100;-90
2021/07/02 10:54:09;;;;;;;6.50;2.95;;;;;;;31.08;40.46;97087.50;4998970;28;20045;-90
2021/07/02 10:56:37;;;;;;;10.82;3.35;;;;;;;30.29;41.26;97071.09;5012435;28;20037;-91
2021/07/02 10:59:03;;;;;;;18.70;3.00;;;;;;;29.78;41.22;97066.72;4978556;28;20036;-91
2021/07/02 11:01:32;;;;;;;6.25;3.13;;;;;;;29.17;41.32;97066.59;4980238;28;20022;-90
2021/07/02 11:04:34;;;;;;;9.35;3.33;;;;;;;28.84;43.85;97066.00;4980753;28;20176;-89
2021/07/02 11:07:25;;;;;;;10.55;3.53;;;;;;;28.61;45.14;97074.75;4981778;28;20026;-89
2021/07/02 11:09:50;;;;;;;9.88;3.92;;;;;;;28.40;44.73;97064.91;4994023;28;20072;-91
2021/07/02 11:12:17;;;;;;;3.53;3.17;;;;;;;28.54;46.40;97060.22;4994178;28;20057;-90
2021/07/02 11:14:52;;;;;;;6.50;2.40;;;;;;;28.78;42.87;97061.38;4978341;28;20029;-89
2021/07/02 11:17:19;;;;;;;4.72;2.50;;;;;;;29.13;42.84;97048.84;4995129;28;20088;-90
2021/07/02 11:19:46;;;;;;;9.18;2.85;;;;;;;29.82;41.45;97054.22;4978609;28;20025;-91
2021/07/02 11:22:29;;;;;;;7.07;2.90;;;;;;;31.12;39.67;97052.78;4981458;28;20029;-90
2021/07/02 11:25:01;;;;;;;3.00;2.40;;;;;;;32.60;35.95;97053.31;4980259;28;20026;-91
2021/07/02 11:28:03;;;;;;;10.98;3.25;;;;;;;32.57;36.80;97056.56;4996986;28;20104;-91
2021/07/02 11:30:42;;;;;;;10.50;3.10;;;;;;;32.33;37.06;97000.38;4976454;28;20117;-91